Terminal Aerodrome Forecast
Issued by NWS Raleigh/Durham, NC

Home | Current Version | Previous Version | Text Only | Print | Product List | Glossary On
Versions: 1 2 3 4 5 6 7 8 9 10 11 12 13 14 15 16 17 18 19 20 21 22 23 24 25 26 27 28 29 30 31 32 33
000
FTUS42 KRAH 222333
TAFFAY
TAF
KFAY 222333Z 2300/2324 04008KT 3SM -RADZ BR OVC004
      TEMPO 2301/2305 1 1/2SM -RA BR OVC002
     FM231700 06006KT 4SM -RADZ BR OVC007=

USA.gov is the U.S. government's official web portal to all federal, state and local government web resources and services.